Time;durP1;ratioP1;P1;durP2;ratioP2;P2;SDS_P1;SDS_P2;PMS_P1;PMS_P2;Temp;Humidity;BMP_temperature;BMP_pressure;BME280_temperature;BME280_humidity;BME280_pressure;Samples;Min_cycle;Max_cycle;Signal;HPM_P1;HPM_P2
2022/12/18 00:00:44;;;;;;;;;3.33;2.00;;;;;10.55;64.20;100797.50;5047014;28;45533;-69
2022/12/18 00:03:09;;;;;;;;;4.00;2.33;;;;;10.48;64.02;100785.91;5048605;28;45486;-69
2022/12/18 00:05:36;;;;;;;;;3.33;3.00;;;;;10.51;63.95;100790.38;5074858;28;45410;-68
2022/12/18 00:08:02;;;;;;;;;3.00;2.00;;;;;10.49;63.94;100800.78;5060610;28;45511;-75
2022/12/18 00:10:28;;;;;;;;;4.50;4.00;;;;;10.51;63.98;100793.00;5049697;28;45884;-68
2022/12/18 00:12:54;;;;;;;;;4.67;3.67;;;;;10.49;64.42;100789.44;5052567;28;45674;-68
2022/12/18 00:15:20;;;;;;;;;6.00;4.00;;;;;10.48;64.34;100793.75;5059105;28;45551;-69
2022/12/18 00:17:45;;;;;;;;;5.25;4.00;;;;;10.49;64.39;100798.16;5060050;28;45525;-68
2022/12/18 00:20:11;;;;;;;;;4.33;4.33;;;;;10.45;64.37;100790.19;5060070;28;45483;-68
2022/12/18 00:22:37;;;;;;;;;3.00;2.33;;;;;10.24;64.36;100752.00;5060268;28;45464;-68
2022/12/18 00:25:02;;;;;;;;;6.00;4.50;;;;;10.53;64.20;100789.59;5060424;28;45476;-73
2022/12/18 00:27:28;;;;;;;;;6.00;5.00;;;;;10.47;64.77;100794.59;5058160;28;45419;-68
2022/12/18 00:29:54;;;;;;;;;5.00;5.00;;;;;10.42;64.70;100796.16;5050063;28;45450;-74
2022/12/18 00:32:19;;;;;;;;;4.00;3.00;;;;;10.44;64.91;100794.50;5058980;28;45397;-69
2022/12/18 00:34:44;;;;;;;;;5.25;5.25;;;;;10.47;64.81;100802.44;5059825;28;45307;-69
2022/12/18 00:37:10;;;;;;;;;4.67;4.67;;;;;10.48;64.79;100801.59;5059264;28;45766;-75
2022/12/18 00:39:35;;;;;;;;;5.00;4.67;;;;;10.52;64.61;100800.91;5058550;28;45415;-68
2022/12/18 00:44:45;;;;;;;;;8.00;5.00;;;;;10.44;64.74;100797.09;5045888;28;45402;-68
2022/12/18 00:47:10;;;;;;;;;4.75;4.75;;;;;10.45;64.94;100804.13;5059929;28;45514;-73
2022/12/18 00:49:36;;;;;;;;;5.33;5.00;;;;;10.45;64.94;100808.47;5057373;28;45379;-69
2022/12/18 00:52:01;;;;;;;;;4.25;3.50;;;;;10.42;65.19;100814.44;5059752;28;45301;-69
2022/12/18 00:54:27;;;;;;;;;5.50;4.75;;;;;10.44;64.71;100806.66;5058733;28;45300;-69
2022/12/18 00:56:52;;;;;;;;;5.33;4.00;;;;;10.44;64.71;100802.31;5059633;28;46124;-69
2022/12/18 00:59:18;;;;;;;;;3.67;3.00;;;;;10.42;64.70;100800.50;5059292;28;45372;-69
2022/12/18 01:01:44;;;;;;;;;5.00;4.00;;;;;10.43;64.80;100812.75;5059627;28;45484;-71
2022/12/18 01:04:10;;;;;;;;;7.00;5.00;;;;;10.44;64.91;100811.88;5059391;28;45665;-69
2022/12/18 01:06:35;;;;;;;;;5.00;4.00;;;;;10.49;64.48;100811.22;5058921;28;46116;-69
2022/12/18 01:09:02;;;;;;;;;5.75;5.00;;;;;10.43;64.40;100807.53;5074159;28;45442;-69
2022/12/18 01:11:27;;;;;;;;;5.33;5.00;;;;;10.47;64.49;100818.13;5059620;28;45257;-69
2022/12/18 01:13:54;;;;;;;;;4.00;3.67;;;;;10.44;64.56;100822.34;5058878;28;45376;-69
2022/12/18 01:16:19;;;;;;;;;7.00;5.33;;;;;10.42;64.80;100822.28;5059256;28;45558;-69
2022/12/18 01:18:45;;;;;;;;;4.00;3.75;;;;;10.39;64.87;100819.56;5059419;28;45408;-70
2022/12/18 01:21:14;;;;;;;;;7.00;4.25;;;;;10.37;64.75;100820.38;5059508;28;45475;-69
2022/12/18 01:23:39;;;;;;;;;8.00;4.67;;;;;10.05;65.07;100760.03;5058733;28;45441;-70
2022/12/18 01:26:07;;;;;;;;;6.25;5.75;;;;;10.29;65.17;100810.50;5053094;28;45941;-70
2022/12/18 01:28:33;;;;;;;;;4.75;4.50;;;;;9.99;64.97;100763.31;5039103;28;45573;-70
2022/12/18 01:31:28;;;;;;;;;5.00;5.00;;;;;10.19;65.46;100802.28;5039027;28;45472;-69
2022/12/18 01:33:54;;;;;;;;;7.33;5.33;;;;;10.12;65.44;100804.66;5038907;28;45401;-69
2022/12/18 01:36:23;;;;;;;;;7.50;7.25;;;;;10.07;65.74;100797.53;5038725;28;45301;-70
2022/12/18 01:38:50;;;;;;;;;7.33;7.33;;;;;10.01;65.96;100787.75;5039577;28;45484;-69
2022/12/18 01:41:19;;;;;;;;;5.00;5.00;;;;;9.98;66.11;100792.84;5059313;28;45513;-69
2022/12/18 01:43:45;;;;;;;;;7.75;7.25;;;;;9.94;66.17;100797.06;5058464;28;45321;-70
2022/12/18 01:46:11;;;;;;;;;6.00;5.00;;;;;9.92;66.11;100792.63;5058370;28;45475;-70
2022/12/18 01:48:38;;;;;;;;;8.00;6.25;;;;;9.89;66.25;100795.13;5058431;28;45490;-69
2022/12/18 01:51:04;;;;;;;;;5.50;5.25;;;;;9.85;66.52;100794.13;5058806;28;45491;-70
2022/12/18 01:53:30;;;;;;;;;5.00;5.00;;;;;9.76;66.35;100780.72;5058587;28;45437;-69
2022/12/18 01:55:58;;;;;;;;;5.00;5.00;;;;;9.81;66.60;100800.06;5055609;28;45457;-73
2022/12/18 01:58:41;;;;;;;;;8.00;6.00;;;;;9.78;66.80;100801.66;5055425;28;45341;-69
2022/12/18 02:01:07;;;;;;;;;6.25;4.50;;;;;9.76;66.70;100802.47;5058465;28;45413;-70
2022/12/18 02:03:32;;;;;;;;;8.50;5.00;;;;;9.72;67.15;100799.72;5058680;28;45229;-69
2022/12/18 02:06:19;;;;;;;;;9.00;7.00;;;;;9.68;66.99;100803.91;5058249;28;46237;-75
2022/12/18 02:09:13;;;;;;;;;8.00;7.75;;;;;9.65;66.95;100796.00;5057630;28;45505;-70
2022/12/18 02:12:08;;;;;;;;;8.00;7.50;;;;;9.64;67.36;100795.94;5036894;28;45665;-68
2022/12/18 02:14:46;;;;;;;;;8.50;6.25;;;;;9.64;67.14;100795.94;5047501;28;45531;-74
2022/12/18 02:17:17;;;;;;;;;5.00;5.00;;;;;9.65;66.90;100806.44;5056975;28;46041;-72
2022/12/18 02:19:49;;;;;;;;;8.00;7.00;;;;;9.64;67.23;100804.63;5057182;28;45452;-68
2022/12/18 02:22:34;;;;;;;;;7.25;5.00;;;;;9.60;67.26;100807.06;5057801;28;45488;-68
2022/12/18 02:25:07;;;;;;;;;7.00;7.00;;;;;9.58;67.50;100804.41;5038338;28;45399;-68
2022/12/18 02:27:35;;;;;;;;;5.00;4.00;;;;;9.56;67.29;100803.47;5037669;28;46143;-72
2022/12/18 02:30:03;;;;;;;;;4.25;4.25;;;;;9.38;67.37;100768.88;5037889;28;45446;-68
2022/12/18 02:32:35;;;;;;;;;5.25;4.25;;;;;9.55;67.38;100788.66;5039261;28;45421;-68
2022/12/18 02:35:04;;;;;;;;;4.00;4.00;;;;;9.55;67.72;100780.84;5058048;28;45372;-69
2022/12/18 02:37:31;;;;;;;;;7.00;4.75;;;;;9.56;67.48;100790.41;5057534;28;47406;-69
2022/12/18 02:39:59;;;;;;;;;7.00;7.00;;;;;9.53;67.48;100777.28;5057978;28;45310;-68
2022/12/18 02:42:26;;;;;;;;;8.00;6.75;;;;;9.52;67.71;100783.31;5058107;28;45353;-73
2022/12/18 02:44:52;;;;;;;;;5.50;5.25;;;;;9.50;68.20;100777.16;5057953;28;45437;-73
2022/12/18 02:47:22;;;;;;;;;7.00;5.00;;;;;9.48;67.92;100771.00;5057896;28;45501;-68
2022/12/18 02:50:18;;;;;;;;;9.00;7.25;;;;;9.44;68.20;100774.31;5057933;28;45523;-68
2022/12/18 02:53:06;;;;;;;;;7.00;5.00;;;;;9.42;68.10;100778.56;5057668;28;45498;-68
2022/12/18 02:55:38;;;;;;;;;4.75;4.25;;;;;9.39;68.07;100773.22;5056226;28;45349;-68
2022/12/18 02:58:28;;;;;;;;;8.75;8.75;;;;;9.35;68.52;100773.13;5054649;28;45609;-68
2022/12/18 03:01:40;;;;;;;;;5.50;5.00;;;;;9.26;68.40;100769.28;5056701;28;45556;-68
2022/12/18 03:04:12;;;;;;;;;6.50;5.00;;;;;9.27;68.62;100779.78;5040925;28;45443;-68
2022/12/18 03:06:46;;;;;;;;;7.75;5.00;;;;;9.23;68.79;100788.31;5041313;28;45535;-68
2022/12/18 03:09:19;;;;;;;;;9.00;7.75;;;;;9.19;68.78;100796.84;5057450;28;45348;-74
2022/12/18 03:14:42;;;;;;;;;8.25;7.25;;;;;9.12;69.17;100786.97;5053321;28;45705;-74
2022/12/18 03:17:13;;;;;;;;;8.50;7.50;;;;;9.08;69.09;100787.69;5046080;28;45516;-74
2022/12/18 03:19:42;;;;;;;;;10.00;9.00;;;;;8.87;69.33;100757.34;5056520;28;45318;-74
2022/12/18 03:22:09;;;;;;;;;8.00;7.75;;;;;8.92;69.96;100776.66;5055873;28;45503;-74
2022/12/18 03:24:39;;;;;;;;;14.75;14.00;;;;;8.98;69.71;100791.63;5056094;28;45342;-74
2022/12/18 03:27:10;;;;;;;;;8.25;7.00;;;;;8.95;70.00;100791.50;5045740;28;45521;-75
2022/12/18 03:29:49;;;;;;;;;9.00;7.75;;;;;8.86;69.87;100786.81;5036641;28;45533;-74
2022/12/18 03:32:46;;;;;;;;;5.00;4.00;;;;;8.94;69.79;100798.44;5036903;28;45553;-74
2022/12/18 03:35:18;;;;;;;;;6.00;6.00;;;;;8.94;69.93;100795.84;5036563;28;45378;-75
2022/12/18 03:37:44;;;;;;;;;7.50;5.25;;;;;8.94;69.84;100792.34;5052655;28;45475;-75
2022/12/18 03:40:10;;;;;;;;;8.00;7.00;;;;;8.92;70.01;100789.66;5042055;28;45394;-75
2022/12/18 03:42:51;;;;;;;;;7.00;6.00;;;;;8.91;70.11;100794.81;5047159;28;45488;-75
2022/12/18 03:45:26;;;;;;;;;15.00;11.00;;;;;8.89;70.01;100789.56;5052222;28;45487;-75
2022/12/18 03:48:19;;;;;;;;;8.00;7.00;;;;;8.86;70.04;100797.25;5052693;28;45365;-75
2022/12/18 03:50:53;;;;;;;;;10.75;8.50;;;;;8.82;70.14;100799.66;5048724;28;46224;-70
2022/12/18 03:53:46;;;;;;;;;7.25;7.00;;;;;8.85;70.24;100808.47;5039535;28;45825;-73
2022/12/18 03:56:16;;;;;;;;;10.75;9.75;;;;;8.85;70.07;100807.59;5055646;28;45959;-75
2022/12/18 03:58:45;;;;;;;;;9.00;7.75;;;;;8.30;70.21;100713.31;5056181;28;45504;-74
2022/12/18 04:01:13;;;;;;;;;7.50;7.50;;;;;8.85;70.27;100813.69;5055915;28;45450;-71
2022/12/18 04:03:39;;;;;;;;;8.25;8.25;;;;;8.86;70.11;100810.28;5056196;28;45464;-72
2022/12/18 04:06:06;;;;;;;;;7.00;7.00;;;;;8.86;69.99;100812.88;5055341;28;45487;-72
2022/12/18 04:08:34;;;;;;;;;8.75;8.00;;;;;8.86;70.30;100810.28;5051001;28;46113;-74
2022/12/18 04:11:01;;;;;;;;;6.00;6.00;;;;;8.87;70.11;100801.66;5045693;28;45905;-73
2022/12/18 04:13:36;;;;;;;;;8.00;8.00;;;;;8.83;70.00;100798.81;5055927;28;45396;-72
2022/12/18 04:16:02;;;;;;;;;7.25;7.00;;;;;8.86;70.03;100804.19;5055248;28;45334;-74
2022/12/18 04:18:28;;;;;;;;;7.75;7.00;;;;;8.82;70.23;100804.88;5055721;28;45384;-74
2022/12/18 04:20:53;;;;;;;;;8.00;7.00;;;;;8.79;70.59;100810.84;5055863;28;45966;-74
2022/12/18 04:23:19;;;;;;;;;7.50;7.25;;;;;8.79;70.47;100807.34;5040978;28;45291;-73
2022/12/18 04:25:46;;;;;;;;;5.00;4.75;;;;;8.79;70.31;100803.00;5054460;28;45426;-75
2022/12/18 04:28:12;;;;;;;;;4.00;4.00;;;;;8.82;69.97;100802.28;5049175;28;45494;-76
2022/12/18 04:30:37;;;;;;;;;4.25;3.25;;;;;8.88;69.86;100797.31;5046464;28;46050;-72
2022/12/18 04:33:03;;;;;;;;;3.00;2.50;;;;;8.89;69.84;100791.25;5047958;28;45609;-74
2022/12/18 04:35:28;;;;;;;;;3.00;3.00;;;;;8.73;69.71;100763.69;5056067;28;45389;-74
2022/12/18 04:37:54;;;;;;;;;3.00;3.00;;;;;8.92;69.75;100796.59;5053301;28;45377;-74
2022/12/18 04:40:20;;;;;;;;;3.00;2.50;;;;;8.93;69.47;100785.34;5049388;28;45589;-76
2022/12/18 04:42:45;;;;;;;;;3.00;2.75;;;;;8.94;69.05;100787.13;5044579;28;45433;-76
2022/12/18 04:45:11;;;;;;;;;7.50;5.00;;;;;8.93;69.71;100775.84;5056826;28;45609;-76
2022/12/18 04:47:36;;;;;;;;;4.50;3.75;;;;;8.93;69.67;100774.91;5053502;28;45545;-73
2022/12/18 04:50:02;;;;;;;;;3.75;3.00;;;;;9.02;68.99;100762.28;5048697;28;45436;-74
2022/12/18 04:52:28;;;;;;;;;1.00;1.00;;;;;9.16;68.13;100762.81;5050762;28;45541;-75
2022/12/18 04:54:53;;;;;;;;;2.33;2.00;;;;;9.32;67.30;100759.97;5059051;28;45397;-76
2022/12/18 04:57:19;;;;;;;;;2.00;2.00;;;;;9.45;66.88;100747.38;5059287;28;45504;-75
2022/12/18 04:59:44;;;;;;;;;2.00;2.00;;;;;9.52;66.76;100744.19;5058013;28;45722;-74
2022/12/18 05:02:10;;;;;;;;;1.75;1.75;;;;;9.56;66.71;100746.09;5058730;28;45442;-74
2022/12/18 05:04:35;;;;;;;;;1.00;1.00;;;;;9.58;66.51;100740.94;5058660;28;45494;-74
2022/12/18 05:07:01;;;;;;;;;3.00;3.00;;;;;9.61;66.33;100741.94;5058598;28;45512;-75
2022/12/18 05:09:26;;;;;;;;;2.50;2.00;;;;;9.62;66.56;100748.91;5042607;28;46026;-73
2022/12/18 05:11:52;;;;;;;;;2.25;1.50;;;;;9.64;66.54;100748.97;5054712;28;45436;-76
2022/12/18 05:14:18;;;;;;;;;2.00;1.25;;;;;9.62;66.67;100745.44;5050667;28;45563;-75
2022/12/18 05:16:43;;;;;;;;;2.00;2.00;;;;;9.60;66.50;100740.16;5044840;28;45326;-75
2022/12/18 05:19:09;;;;;;;;;2.00;2.00;;;;;9.61;66.48;100738.41;5058481;28;46092;-76
2022/12/18 05:21:34;;;;;;;;;2.00;1.00;;;;;9.68;65.92;100745.66;5058272;28;45476;-75
2022/12/18 05:24:00;;;;;;;;;2.67;2.00;;;;;9.75;65.69;100743.31;5058519;28;45442;-70
2022/12/18 05:26:25;;;;;;;;;2.50;2.25;;;;;9.72;65.70;100729.28;5058906;28;45467;-76
2022/12/18 05:28:51;;;;;;;;;1.25;1.00;;;;;9.79;65.60;100741.72;5057172;28;47910;-69
2022/12/18 05:31:16;;;;;;;;;2.00;2.00;;;;;9.85;64.85;100731.50;5044791;28;45397;-70
2022/12/18 05:33:42;;;;;;;;;1.00;1.00;;;;;9.81;64.57;100710.44;5051112;28;45302;-69
2022/12/18 05:36:09;;;;;;;;;3.00;1.00;;;;;9.94;64.63;100733.53;5042394;28;45820;-68
2022/12/18 05:38:36;;;;;;;;;3.00;1.33;;;;;9.95;64.25;100731.00;5054242;28;45286;-69
2022/12/18 05:41:03;;;;;;;;;2.00;2.00;;;;;9.99;64.47;100731.06;5038803;28;45436;-70
2022/12/18 05:43:29;;;;;;;;;1.00;1.00;;;;;9.94;64.29;100710.06;5039028;28;45450;-69
2022/12/18 05:45:56;;;;;;;;;1.00;1.00;;;;;10.07;63.45;100729.66;5054742;28;45419;-69
2022/12/18 05:48:22;;;;;;;;;2.00;1.00;;;;;9.95;63.67;100696.19;5045773;28;46041;-69
2022/12/18 05:50:49;;;;;;;;;1.00;0.00;;;;;10.16;63.78;100724.72;5054129;28;45583;-69
2022/12/18 05:53:19;;;;;;;;;1.00;1.00;;;;;10.12;63.69;100722.84;5042575;28;45481;-68
2022/12/18 05:55:44;;;;;;;;;1.67;1.67;;;;;10.16;63.72;100732.56;5058169;28;45552;-69
2022/12/18 05:58:11;;;;;;;;;1.67;1.67;;;;;9.97;63.58;100699.72;5058304;28;45454;-70
2022/12/18 06:00:39;;;;;;;;;1.00;1.00;;;;;10.14;63.73;100724.66;5053733;28;46123;-68
2022/12/18 06:03:07;;;;;;;;;1.00;1.00;;;;;10.14;63.80;100739.47;5045263;28;45447;-69
2022/12/18 06:05:41;;;;;;;;;1.00;1.00;;;;;10.13;63.41;100730.75;5058972;28;45881;-68
2022/12/18 06:08:07;;;;;;;;;2.00;1.00;;;;;10.15;63.33;100718.63;5057621;28;46104;-69
2022/12/18 06:10:32;;;;;;;;;1.00;0.67;;;;;10.15;63.52;100728.19;5060767;28;45304;-69
2022/12/18 06:12:58;;;;;;;;;1.00;1.00;;;;;10.13;63.64;100735.97;5038303;28;45373;-74
2022/12/18 06:15:24;;;;;;;;;2.00;1.00;;;;;10.13;63.42;100741.19;5049538;28;45245;-73
2022/12/18 06:17:50;;;;;;;;;0.00;0.00;;;;;10.15;63.12;100744.75;5072717;28;45454;-68
2022/12/18 06:20:15;;;;;;;;;1.00;0.33;;;;;10.10;63.68;100735.84;5057026;28;45432;-68
2022/12/18 06:22:41;;;;;;;;;0.33;0.33;;;;;10.16;63.22;100743.88;5057238;28;45357;-73
2022/12/18 06:25:07;;;;;;;;;1.00;1.00;;;;;10.17;63.14;100739.56;5057564;28;45422;-75
2022/12/18 06:27:33;;;;;;;;;0.00;0.00;;;;;10.24;62.81;100738.94;5056343;28;45526;-74
2022/12/18 06:29:59;;;;;;;;;3.00;1.00;;;;;10.27;62.95;100752.09;5057524;28;45426;-73
2022/12/18 06:32:25;;;;;;;;;1.00;1.00;;;;;10.34;62.56;100734.94;5071980;28;45706;-74
2022/12/18 06:34:51;;;;;;;;;2.00;1.00;;;;;10.23;62.27;100694.53;5057220;28;45591;-71
2022/12/18 06:37:16;;;;;;;;;1.00;0.00;;;;;10.45;61.90;100732.72;5056833;28;45434;-74
2022/12/18 06:39:42;;;;;;;;;0.00;0.00;;;;;10.33;62.18;100701.84;5043409;28;45382;-72
2022/12/18 06:42:08;;;;;;;;;2.00;1.67;;;;;10.50;61.99;100715.47;5037505;28;45290;-74
2022/12/18 06:44:33;;;;;;;;;1.00;0.00;;;;;10.37;61.64;100697.63;5042682;28;45399;-74
2022/12/18 06:46:59;;;;;;;;;1.00;1.00;;;;;10.47;62.11;100710.16;5056487;28;45339;-75
2022/12/18 06:49:25;;;;;;;;;1.00;1.00;;;;;10.44;62.01;100715.25;5056721;28;45386;-74
2022/12/18 06:51:50;;;;;;;;;0.00;0.00;;;;;10.50;62.03;100724.19;5040209;28;45407;-74
2022/12/18 06:54:16;;;;;;;;;0.00;0.00;;;;;10.47;61.58;100711.03;5050298;28;45488;-72
2022/12/18 06:56:41;;;;;;;;;0.00;0.00;;;;;10.59;61.07;100720.13;5040985;28;45499;-76
2022/12/18 06:59:07;;;;;;;;;4.00;3.33;;;;;10.60;61.14;100717.53;5056623;28;45361;-77
2022/12/18 07:01:32;;;;;;;;;1.67;1.00;;;;;10.61;61.61;100708.00;5057782;28;45568;-76
2022/12/18 07:03:58;;;;;;;;;1.00;1.00;;;;;10.57;61.41;100695.66;5058197;28;45238;-74
2022/12/18 07:06:25;;;;;;;;;1.00;1.00;;;;;10.63;61.32;100701.97;5057144;28;45842;-75
2022/12/18 07:08:53;;;;;;;;;3.75;3.00;;;;;10.69;60.88;100701.28;5056616;28;45384;-75
2022/12/18 07:11:19;;;;;;;;;2.00;2.00;;;;;10.72;60.48;100709.19;5056500;28;45470;-75
2022/12/18 07:13:46;;;;;;;;;8.67;4.33;;;;;10.74;60.83;100712.75;5056109;28;45370;-74
2022/12/18 07:16:14;;;;;;;;;2.67;2.00;;;;;10.73;60.90;100718.81;5055115;28;46029;-75
2022/12/18 07:18:40;;;;;;;;;9.00;4.00;;;;;10.75;60.93;100714.53;5043686;28;45789;-74
2022/12/18 07:21:08;;;;;;;;;4.00;3.50;;;;;10.76;60.59;100705.84;5048466;28;45494;-75
2022/12/18 07:23:35;;;;;;;;;5.00;5.00;;;;;10.76;60.60;100713.69;5041516;28;45524;-75
2022/12/18 07:26:06;;;;;;;;;15.75;13.25;;;;;10.85;60.33;100724.44;5055725;28;45453;-73
2022/12/18 07:28:33;;;;;;;;;12.00;11.00;;;;;10.93;59.63;100722.94;5062247;28;45568;-75
2022/12/18 07:31:03;;;;;;;;;2.67;2.67;;;;;11.01;59.54;100730.16;5056687;28;45377;-76
2022/12/18 07:33:28;;;;;;;;;4.00;3.00;;;;;11.00;59.50;100724.03;5040488;28;45326;-73
2022/12/18 07:35:54;;;;;;;;;1.00;1.00;;;;;11.05;58.93;100721.56;5057104;28;45526;-76
2022/12/18 07:38:19;;;;;;;;;5.00;4.00;;;;;11.13;59.12;100717.44;5056283;28;45445;-74
2022/12/18 07:40:45;;;;;;;;;6.00;4.00;;;;;11.06;59.00;100691.94;5056391;28;45465;-73
2022/12/18 07:43:10;;;;;;;;;3.33;3.00;;;;;11.25;58.57;100720.44;5056474;28;45318;-74
2022/12/18 07:45:36;;;;;;;;;13.25;12.25;;;;;11.28;58.48;100714.41;5055001;28;45441;-75
2022/12/18 07:48:01;;;;;;;;;4.00;4.00;;;;;11.14;58.72;100704.44;5056215;28;45330;-75
2022/12/18 07:50:27;;;;;;;;;3.00;2.33;;;;;11.21;58.70;100710.72;5056338;28;45597;-69
2022/12/18 07:52:52;;;;;;;;;6.25;5.00;;;;;11.39;58.72;100728.69;5052180;28;45312;-71
2022/12/18 07:55:18;;;;;;;;;2.00;2.00;;;;;11.50;57.95;100726.41;5051074;28;45717;-75
2022/12/18 07:57:43;;;;;;;;;2.00;2.00;;;;;11.59;57.59;100736.25;5041978;28;45398;-75
2022/12/18 08:00:10;;;;;;;;;3.00;3.00;;;;;11.65;57.26;100746.88;5055864;28;45397;-75
2022/12/18 08:02:35;;;;;;;;;2.00;2.00;;;;;11.71;57.14;100760.13;5054728;28;45639;-75
2022/12/18 08:05:01;;;;;;;;;3.00;3.00;;;;;11.65;57.15;100731.19;5054719;28;45862;-74
2022/12/18 08:07:26;;;;;;;;;0.67;0.33;;;;;11.82;57.20;100735.16;5052416;28;45425;-74
2022/12/18 08:09:52;;;;;;;;;1.00;1.00;;;;;11.93;56.72;100740.72;5055121;28;45533;-76
2022/12/18 08:12:17;;;;;;;;;2.00;1.00;;;;;12.02;56.04;100740.09;5050920;28;45967;-74
2022/12/18 08:14:43;;;;;;;;;3.00;2.67;;;;;12.13;55.74;100733.41;5054721;28;47604;-74
2022/12/18 08:17:09;;;;;;;;;1.33;1.33;;;;;12.24;55.83;100742.44;5058161;28;45740;-74
2022/12/18 08:19:34;;;;;;;;;0.00;0.00;;;;;12.18;55.29;100712.59;5057896;28;45462;-76
2022/12/18 08:22:00;;;;;;;;;0.00;0.00;;;;;12.42;55.61;100743.78;5058462;28;45341;-74
2022/12/18 08:24:25;;;;;;;;;1.00;1.00;;;;;12.44;55.29;100742.94;5056426;28;45575;-77
2022/12/18 08:26:51;;;;;;;;;1.00;0.00;;;;;12.48;55.20;100743.91;5054474;28;45538;-72
2022/12/18 08:29:16;;;;;;;;;1.00;1.00;;;;;12.59;55.29;100750.28;5057987;28;45370;-73
2022/12/18 08:31:42;;;;;;;;;0.00;0.00;;;;;12.62;55.03;100741.66;5058637;28;45456;-73
2022/12/18 08:34:08;;;;;;;;;3.00;3.00;;;;;12.66;54.93;100752.22;5056312;28;45991;-74
2022/12/18 08:36:33;;;;;;;;;1.00;1.00;;;;;12.71;55.33;100757.56;5057394;28;45926;-72
2022/12/18 08:38:59;;;;;;;;;3.33;3.00;;;;;12.74;55.28;100765.53;5056916;28;45583;-73
2022/12/18 08:41:25;;;;;;;;;3.00;2.33;;;;;12.77;55.07;100772.56;5057623;28;45562;-71
2022/12/18 08:46:38;;;;;;;;;1.00;1.00;;;;;12.89;54.69;100776.41;5053901;28;45751;-73
2022/12/18 08:49:05;;;;;;;;;8.00;8.00;;;;;12.81;54.56;100751.75;5055402;28;45507;-73
2022/12/18 08:51:30;;;;;;;;;1.33;1.00;;;;;13.04;54.28;100762.75;5055708;28;45490;-76
2022/12/18 08:53:56;;;;;;;;;0.00;0.00;;;;;13.14;53.78;100763.84;5056684;28;45475;-76
2022/12/18 08:56:21;;;;;;;;;4.00;2.00;;;;;13.08;53.52;100734.88;5057461;28;45426;-76
2022/12/18 08:58:47;;;;;;;;;0.33;0.33;;;;;13.30;53.60;100754.63;5056979;28;45510;-77
2022/12/18 09:01:13;;;;;;;;;1.50;1.50;;;;;13.26;53.98;100753.63;5058667;28;45556;-74
2022/12/18 09:03:39;;;;;;;;;2.00;2.00;;;;;13.37;53.97;100771.38;5055711;28;45661;-74
2022/12/18 09:06:08;;;;;;;;;8.00;8.00;;;;;13.37;54.20;100766.13;5058118;28;45543;-71
2022/12/18 09:08:34;;;;;;;;;10.00;9.00;;;;;13.41;54.30;100773.22;5056278;28;45405;-75
2022/12/18 09:11:00;;;;;;;;;3.00;3.00;;;;;13.45;54.27;100773.34;5057732;28;45531;-74
2022/12/18 09:13:26;;;;;;;;;1.00;1.00;;;;;13.27;54.28;100736.16;5057033;28;45594;-76
2022/12/18 09:15:54;;;;;;;;;5.67;4.67;;;;;13.53;53.84;100781.38;5058195;28;45824;-74
2022/12/18 09:18:21;;;;;;;;;4.00;2.67;;;;;13.59;53.82;100767.47;5057108;28;45328;-75
2022/12/18 09:20:52;;;;;;;;;3.00;2.00;;;;;13.36;53.67;100711.91;5056244;28;45627;-76
2022/12/18 09:23:18;;;;;;;;;2.67;2.00;;;;;14.37;52.18;100755.88;5049621;28;46120;-71
2022/12/18 09:25:44;;;;;;;;;3.00;3.00;;;;;15.30;50.31;100764.44;5053458;28;45459;-74
2022/12/18 09:28:15;;;;;;;;;4.00;3.00;;;;;15.99;49.70;100760.91;5055588;28;45466;-77
2022/12/18 09:30:49;;;;;;;;;1.00;1.00;;;;;16.40;48.52;100752.56;5057652;28;45414;-79
2022/12/18 09:33:16;;;;;;;;;2.00;2.00;;;;;16.92;47.89;100757.44;5056861;28;45699;-72
2022/12/18 09:35:43;;;;;;;;;5.00;4.67;;;;;17.38;46.94;100763.88;5057889;28;45369;-81
2022/12/18 09:38:13;;;;;;;;;3.00;3.00;;;;;17.82;46.76;100759.66;5057554;28;45379;-81
2022/12/18 09:40:53;;;;;;;;;2.00;2.00;;;;;18.20;45.78;100759.81;5054691;28;45252;-78
2022/12/18 09:43:36;;;;;;;;;3.00;3.00;;;;;18.44;44.94;100755.44;5057145;28;46037;-80
2022/12/18 09:46:07;;;;;;;;;2.67;2.67;;;;;18.56;43.52;100765.16;5048751;28;45298;-78
2022/12/18 09:48:39;;;;;;;;;5.33;5.00;;;;;18.58;44.18;100766.94;5058209;28;45547;-85
2022/12/18 09:51:42;;;;;;;;;5.00;5.00;;;;;18.41;44.08;100766.91;5057545;28;45557;-79
2022/12/18 09:54:18;;;;;;;;;2.33;2.33;;;;;18.01;44.24;100753.59;5055540;28;45482;-72
2022/12/18 09:56:44;;;;;;;;;4.00;3.33;;;;;17.60;44.91;100769.28;5057315;28;45489;-69
2022/12/18 09:59:37;;;;;;;;;2.00;2.00;;;;;17.60;45.66;100771.91;5073982;28;45504;-78
2022/12/18 10:02:24;;;;;;;;;3.00;3.00;;;;;17.85;45.75;100776.47;5056264;28;45783;-75
2022/12/18 10:05:07;;;;;;;;;6.00;5.00;;;;;18.08;44.48;100750.13;5037884;28;46068;-76
2022/12/18 10:07:41;;;;;;;;;4.67;4.67;;;;;18.39;43.89;100767.78;5057856;28;45361;-70
2022/12/18 10:10:19;;;;;;;;;3.67;3.00;;;;;18.46;42.30;100770.47;5056285;28;45389;-71
2022/12/18 10:13:02;;;;;;;;;1.00;1.00;;;;;18.49;43.26;100773.09;5057477;28;45752;-70
2022/12/18 10:15:47;;;;;;;;;2.00;1.67;;;;;18.77;44.01;100764.28;5057059;28;45270;-75
2022/12/18 10:18:36;;;;;;;;;2.00;2.00;;;;;18.76;42.22;100779.28;5056676;28;45429;-73
2022/12/18 10:21:17;;;;;;;;;2.00;1.00;;;;;18.28;42.58;100738.66;5057318;28;46273;-75
2022/12/18 10:24:02;;;;;;;;;1.00;1.00;;;;;18.54;42.98;100781.00;5050017;28;45512;-74
2022/12/18 10:26:27;;;;;;;;;2.00;2.00;;;;;18.71;42.41;100786.34;5054017;28;46546;-75
2022/12/18 10:28:54;;;;;;;;;5.00;5.00;;;;;18.76;42.19;100774.00;5056386;28;45697;-74
2022/12/18 10:31:22;;;;;;;;;2.00;2.00;;;;;18.82;42.09;100789.00;5057073;28;45994;-75
2022/12/18 10:33:48;;;;;;;;;1.33;1.00;;;;;18.88;42.70;100787.25;5046115;28;45583;-75
2022/12/18 10:36:14;;;;;;;;;1.00;1.00;;;;;18.83;42.58;100775.78;5051518;28;45528;-73
2022/12/18 10:38:40;;;;;;;;;0.67;0.67;;;;;18.74;41.79;100751.94;5054334;28;45500;-74
2022/12/18 10:41:06;;;;;;;;;2.33;2.00;;;;;18.93;41.79;100770.50;5043720;28;45516;-72
2022/12/18 10:43:35;;;;;;;;;2.00;2.00;;;;;18.95;42.65;100766.94;5057041;28;45452;-75
2022/12/18 10:46:10;;;;;;;;;4.00;3.00;;;;;19.10;42.23;100763.41;5055899;28;46167;-74
2022/12/18 10:48:38;;;;;;;;;4.33;3.33;;;;;19.11;42.23;100761.63;5056851;28;45344;-75
2022/12/18 10:51:06;;;;;;;;;5.67;3.67;;;;;19.04;41.41;100736.94;5056645;28;45594;-74
2022/12/18 10:53:34;;;;;;;;;27.33;23.67;;;;;19.11;41.05;100749.28;5056682;28;45417;-75
2022/12/18 10:56:00;;;;;;;;;4.67;4.00;;;;;19.04;41.46;100748.41;5056877;28;46194;-74
2022/12/18 10:58:27;;;;;;;;;3.00;3.00;;;;;19.12;41.64;100748.41;5056781;28;45587;-75
2022/12/18 11:01:06;;;;;;;;;4.67;4.00;;;;;18.88;41.26;100714.91;5057572;28;45457;-76
2022/12/18 11:03:35;;;;;;;;;5.33;4.33;;;;;19.11;40.95;100745.75;5057765;28;45524;-74
2022/12/18 11:06:24;;;;;;;;;5.00;5.00;;;;;18.99;42.05;100736.94;5057209;28;46184;-76
2022/12/18 11:09:22;;;;;;;;;2.33;2.00;;;;;18.91;41.49;100749.31;5057029;28;45508;-75
2022/12/18 11:11:54;;;;;;;;;5.00;4.67;;;;;18.82;41.46;100726.38;5057837;28;45296;-75
2022/12/18 11:14:27;;;;;;;;;3.67;3.67;;;;;18.82;41.15;100729.03;5057618;28;45238;-75
2022/12/18 11:16:55;;;;;;;;;4.00;3.00;;;;;18.91;41.47;100729.91;5057119;28;45979;-75
2022/12/18 11:19:32;;;;;;;;;1.00;0.67;;;;;18.85;41.62;100718.44;5056661;28;45472;-78
2022/12/18 11:22:00;;;;;;;;;3.33;3.33;;;;;18.71;42.05;100701.66;5056395;28;45465;-77
2022/12/18 11:24:39;;;;;;;;;4.00;4.00;;;;;18.21;42.45;100608.22;5053363;28;45390;-79
2022/12/18 11:27:15;;;;;;;;;4.00;4.00;;;;;18.87;41.48;100719.31;5051530;28;46460;-77
2022/12/18 11:29:41;;;;;;;;;2.67;2.67;;;;;18.96;41.18;100713.13;5055230;28;45536;-72
2022/12/18 11:32:28;;;;;;;;;1.00;1.00;;;;;18.87;41.55;100729.03;5055336;28;45492;-75
2022/12/18 11:35:02;;;;;;;;;4.00;4.00;;;;;18.71;42.08;100712.25;5051460;28;45492;-78
2022/12/18 11:37:29;;;;;;;;;3.00;3.00;;;;;18.69;41.04;100698.13;5055452;28;45488;-75
2022/12/18 11:40:01;;;;;;;;;3.00;3.00;;;;;18.51;41.78;100691.09;5055854;28;45615;-70
2022/12/18 11:42:46;;;;;;;;;1.00;1.00;;;;;18.51;41.96;100693.72;5051988;28;45427;-76
2022/12/18 11:45:12;;;;;;;;;3.00;2.67;;;;;18.42;41.74;100713.16;5046801;28;45492;-77